CheckWX is a tool to help pilots better visualize weather data.  It is not intended as a substitute for an official pre-flight weather briefing.

01:20:48 UTC

KLNC METAR
Lancaster Regional Airport
Lancaster, Texas, USA
Current

26 mins ago

KLNC 150055Z AUTO 09005KT 10SM OVC008 19/18 A2995 RMK AO2 T01940182
Observed
Oct-15 @ 00:55 UTC
Wind
  • 090° at 5 KTS
Visibility
10 SM
Flight Rules
IFR
Cloud Levels
  • Overcast at 800' AGL
Temperature
19°C / 66°F
Dewpoint
18°C / 64°F
Humidity
94%
Altimeter
29.95" Hg
Pressure
1014.22 hPa
Previous

46 mins ago

KLNC 150035Z AUTO 11003KT 10SM -DZ OVC008 19/18 A2995 RMK AO2 T01940181
Observed
Oct-15 @ 00:35 UTC
Wind
  • 110° at 3 KTS
Visibility
10 SM
Flight Rules
IFR
Conditions
Light Drizzle
Cloud Levels
  • Overcast at 800' AGL
Temperature
19°C / 66°F
Dewpoint
18°C / 64°F
Humidity
94%
Altimeter
29.95" Hg
Pressure
1014.22 hPa
Previous

1 hour ago

KLNC 150015Z AUTO 11003KT 10SM BKN008 OVC017 20/18 A2995 RMK AO2 T01950182
Observed
Oct-15 @ 00:15 UTC
Wind
  • 110° at 3 KTS
Visibility
10 SM
Flight Rules
IFR
Cloud Levels
  • Broken at 800' AGL
  • Overcast at 1,700' AGL
Temperature
20°C / 68°F
Dewpoint
18°C / 64°F
Humidity
88%
Altimeter
29.95" Hg
Pressure
1014.22 hPa